Arctic Taglu — CY8968 — position and weather

sailwx.info

Track history (hours):
 
Tides and Currents Weather Stations Pressure Air Temp Water Temp Dewpoint Dewpoint Depression Visibility Wind Speed Wind Dir Waves Ship Positions

Arctic Taglu

Last reported at 2016-Aug-30 04:33 UTC. Time now 2016-Aug-30 04:55 UTC.
Position N 49°08' W 123°03'.

Length 33 m; draft 6 m.

Type: Tug. MMSI: 316003483.

Date/timePositionNaut miles runAvg speedWind from/ knotsBaromVisibWave heightAir tempDewpointWater temp
2016-Aug-30 04:33N 49°08' W 123°03'0 0.0
2016-Aug-30 03:34N 49°08' W 123°03'  
2016-Aug-27 18:34N 49°08' W 123°03'0 0.4
2016-Aug-27 17:34N 49°09' W 123°02'2 1.9
2016-Aug-27 16:34N 49°07' W 123°04'7 6.7
2016-Aug-27 15:34N 49°08' W 123°15'6 6.3
2016-Aug-27 14:34N 49°02' W 123°19'9 8.7
2016-Aug-27 13:33N 48°53' W 123°18'7 7.2
2016-Aug-27 12:33N 48°46' W 123°21'6 5.6
2016-Aug-27 11:33N 48°41' W 123°24'0 0.0
2016-Aug-27 10:33N 48°41' W 123°24'3 2.9
2016-Aug-27 09:33N 48°44' W 123°23'9 9.4
2016-Aug-27 08:34N 48°53' W 123°18'1010.0
2016-Aug-27 07:33N 49°03' W 123°20'8 7.7
2016-Aug-27 06:34N 49°07' W 123°10'5 2.7
2016-Aug-27 04:33N 49°09' W 123°02'0 0.0
2016-Aug-27 03:34N 49°09' W 123°02'0 0.0
2016-Aug-27 02:33N 49°09' W 123°02'0 0.0
2016-Aug-27 01:33N 49°09' W 123°02'0 0.0
2016-Aug-27 00:33N 49°09' W 123°02'0 0.0
2016-Aug-26 23:33N 49°09' W 123°02'0 0.0
2016-Aug-26 22:33N 49°09' W 123°02'0 0.0
2016-Aug-26 21:34N 49°09' W 123°02'0 0.0
2016-Aug-26 20:34N 49°09' W 123°02'0 0.0
2016-Aug-26 19:34N 49°09' W 123°02'0 0.0
2016-Aug-26 18:33N 49°09' W 123°02'0 0.0
2016-Aug-26 17:33N 49°09' W 123°02'3 2.8
2016-Aug-26 16:34N 49°07' W 123°06'5 5.4
2016-Aug-26 15:34N 49°08' W 123°14'5 5.2
2016-Aug-26 14:34N 49°04' W 123°19'9 8.5
2016-Aug-26 13:33N 48°56' W 123°18'8 7.6
2016-Aug-26 12:33N 48°48' W 123°21'7 6.8
2016-Aug-26 11:30N 48°41' W 123°24'0 0.0
2016-Aug-26 10:30N 48°41' W 123°24'3 3.1
2016-Aug-26 09:34N 48°44' W 123°23'10 9.7
2016-Aug-26 08:33N 48°53' W 123°18'1110.7
2016-Aug-26 07:34N 49°04' W 123°22'9 8.6
2016-Aug-26 06:34N 49°07' W 123°10'5 2.7
2016-Aug-26 04:33N 49°09' W 123°02'0 0.0
2016-Aug-26 03:34N 49°09' W 123°02'0 0.0
2016-Aug-26 02:34N 49°09' W 123°02'0 0.0
2016-Aug-26 01:34N 49°09' W 123°02'0 0.0
2016-Aug-26 00:33N 49°09' W 123°02'0 0.0
2016-Aug-25 23:34N 49°09' W 123°02'0 0.0
2016-Aug-25 22:34N 49°09' W 123°02'0 0.0
2016-Aug-25 21:33N 49°09' W 123°02'0 0.0
2016-Aug-25 20:34N 49°09' W 123°02'0 0.0
2016-Aug-25 19:33N 49°09' W 123°02'0 0.0
2016-Aug-25 18:34N 49°09' W 123°02'0 0.0
2016-Aug-25 17:33N 49°09' W 123°02'3 3.2
2016-Aug-25 16:33N 49°07' W 123°06'5 5.0
2016-Aug-25 15:34N 49°08' W 123°14'6 5.7
2016-Aug-25 14:33N 49°04' W 123°20'7 7.5
2016-Aug-25 13:33N 48°56' W 123°19'9 8.5
2016-Aug-25 12:33N 48°48' W 123°21'7 6.0
2016-Aug-25 11:23N 48°41' W 123°24'0 0.0
2016-Aug-25 10:32N 48°41' W 123°24'3 3.2
2016-Aug-25 09:33N 48°44' W 123°23'1010.2
2016-Aug-25 08:33N 48°54' W 123°18'1111.1
2016-Aug-25 07:33N 49°05' W 123°20'8 8.3
2016-Aug-25 06:33N 49°07' W 123°07'3 1.7
2016-Aug-25 04:33N 49°08' W 123°03'5 4.7
2016-Aug-25 03:33N 49°07' W 123°10'7 7.0
2016-Aug-25 02:33N 49°04' W 123°19'10 9.6
2016-Aug-25 01:33N 48°54' W 123°18'9 8.8
2016-Aug-25 00:33N 48°46' W 123°22'5 4.8
2016-Aug-24 23:33N 48°41' W 123°24'0 0.0
2016-Aug-24 22:31N 48°41' W 123°24'8 8.5
2016-Aug-24 21:33N 48°49' W 123°21'10 9.8
2016-Aug-24 20:33N 48°59' W 123°19'10 9.5
2016-Aug-24 19:33N 49°08' W 123°14'8 8.0
2016-Aug-24 18:33N 49°09' W 123°02'0 0.0
2016-Aug-24 17:33N 49°09' W 123°02'1 0.6
2016-Aug-24 16:33N 49°08' W 123°03'4 4.4
2016-Aug-24 15:33N 49°06' W 123°09'7 6.8
2016-Aug-24 14:33N 49°06' W 123°19'9 8.9
2016-Aug-24 13:33N 48°57' W 123°18'9 8.6
2016-Aug-24 12:33N 48°48' W 123°21'7 6.8
2016-Aug-24 11:29N 48°41' W 123°24'0 0.0
2016-Aug-24 10:32N 48°41' W 123°24'3 3.2
2016-Aug-24 09:33N 48°44' W 123°23'10 9.7
2016-Aug-24 08:33N 48°53' W 123°18'1111.0
2016-Aug-24 07:33N 49°04' W 123°20'8 8.0
2016-Aug-24 06:33N 49°07' W 123°08'5 2.3
2016-Aug-24 04:33N 49°09' W 123°02'0 0.0
2016-Aug-24 03:33N 49°09' W 123°02'0 0.0
2016-Aug-24 02:33N 49°09' W 123°02'0 0.0
2016-Aug-24 01:33N 49°09' W 123°02'0 0.0
2016-Aug-24 00:33N 49°09' W 123°02'0 0.0
2016-Aug-23 23:33N 49°09' W 123°02'0 0.0
2016-Aug-23 22:33N 49°09' W 123°02'0 0.0
2016-Aug-23 21:33N 49°09' W 123°02'0 0.0
2016-Aug-23 20:33N 49°09' W 123°02'0 0.0
2016-Aug-23 19:33N 49°09' W 123°02'0 0.0
2016-Aug-23 18:33N 49°09' W 123°02'0 0.0
2016-Aug-23 17:33N 49°09' W 123°02'1 0.9
2016-Aug-23 16:33N 49°08' W 123°03'1 1.3
2016-Aug-23 15:33N 49°07' W 123°05'8 8.3
2016-Aug-23 14:33N 49°07' W 123°17'9 8.5
2016-Aug-23 13:33N 48°58' W 123°18'9 8.9
2016-Aug-23 12:33N 48°49' W 123°21'8 8.3
2016-Aug-23 11:33N 48°41' W 123°24'0 0.0
2016-Aug-23 10:32N 48°41' W 123°24'3 3.1
2016-Aug-23 09:33N 48°44' W 123°23'9 9.1
2016-Aug-23 08:34N 48°53' W 123°18'1110.6
2016-Aug-23 07:34N 49°03' W 123°21'9 8.7
2016-Aug-23 06:34N 49°07' W 123°09'5 5.2
2016-Aug-23 05:33N 49°09' W 123°02'0 0.5
2016-Aug-23 04:33N 49°08' W 123°03'  
2016-Aug-20 17:20N 49°08' W 123°03'0 0.6
2016-Aug-20 16:33N 49°09' W 123°02'3 3.5
2016-Aug-20 15:33N 49°07' W 123°06'9 8.7
2016-Aug-20 14:33N 49°06' W 123°20'10 9.6
2016-Aug-20 13:33N 48°56' W 123°18'9 8.6
2016-Aug-20 12:33N 48°48' W 123°21'7 6.6
2016-Aug-20 11:33N 48°41' W 123°24'0 0.0
2016-Aug-20 10:33N 48°41' W 123°24'3 3.1
2016-Aug-20 09:33N 48°43' W 123°21'8 8.2
2016-Aug-20 08:33N 48°52' W 123°19'10 9.7
2016-Aug-20 07:34N 49°01' W 123°19'8 8.2
2016-Aug-20 06:33N 49°07' W 123°10'5 5.5
2016-Aug-20 05:33N 49°09' W 123°02'0 0.1
2016-Aug-20 04:33N 49°09' W 123°02'  
Track history (hours):
 
Tides and Currents Weather Stations Pressure Air Temp Water Temp Dewpoint Dewpoint Depression Visibility Wind Speed Wind Dir Waves Ship Positions

Arctic Taglu

Last reported at 2016-Aug-30 04:33 UTC. Time now 2016-Aug-30 04:55 UTC.
Position N 49°08' W 123°03'.

Length 33 m; draft 6 m.

Type: Tug. MMSI: 316003483.

Date/timePositionNaut miles runAvg speedWind from/ knotsBaromVisibWave heightAir tempDewpointWater temp
2016-Aug-30 04:33N 49°08' W 123°03'0 0.0
2016-Aug-30 03:34N 49°08' W 123°03'  
2016-Aug-27 18:34N 49°08' W 123°03'0 0.4
2016-Aug-27 17:34N 49°09' W 123°02'2 1.9
2016-Aug-27 16:34N 49°07' W 123°04'7 6.7
2016-Aug-27 15:34N 49°08' W 123°15'6 6.3
2016-Aug-27 14:34N 49°02' W 123°19'9 8.7
2016-Aug-27 13:33N 48°53' W 123°18'7 7.2
2016-Aug-27 12:33N 48°46' W 123°21'6 5.6
2016-Aug-27 11:33N 48°41' W 123°24'0 0.0
2016-Aug-27 10:33N 48°41' W 123°24'3 2.9
2016-Aug-27 09:33N 48°44' W 123°23'9 9.4
2016-Aug-27 08:34N 48°53' W 123°18'1010.0
2016-Aug-27 07:33N 49°03' W 123°20'8 7.7
2016-Aug-27 06:34N 49°07' W 123°10'5 2.7
2016-Aug-27 04:33N 49°09' W 123°02'0 0.0
2016-Aug-27 03:34N 49°09' W 123°02'0 0.0
2016-Aug-27 02:33N 49°09' W 123°02'0 0.0
2016-Aug-27 01:33N 49°09' W 123°02'0 0.0
2016-Aug-27 00:33N 49°09' W 123°02'0 0.0
2016-Aug-26 23:33N 49°09' W 123°02'0 0.0
2016-Aug-26 22:33N 49°09' W 123°02'0 0.0
2016-Aug-26 21:34N 49°09' W 123°02'0 0.0
2016-Aug-26 20:34N 49°09' W 123°02'0 0.0
2016-Aug-26 19:34N 49°09' W 123°02'0 0.0
2016-Aug-26 18:33N 49°09' W 123°02'0 0.0
2016-Aug-26 17:33N 49°09' W 123°02'3 2.8
2016-Aug-26 16:34N 49°07' W 123°06'5 5.4
2016-Aug-26 15:34N 49°08' W 123°14'5 5.2
2016-Aug-26 14:34N 49°04' W 123°19'9 8.5
2016-Aug-26 13:33N 48°56' W 123°18'8 7.6
2016-Aug-26 12:33N 48°48' W 123°21'7 6.8
2016-Aug-26 11:30N 48°41' W 123°24'0 0.0
2016-Aug-26 10:30N 48°41' W 123°24'3 3.1
2016-Aug-26 09:34N 48°44' W 123°23'10 9.7
2016-Aug-26 08:33N 48°53' W 123°18'1110.7
2016-Aug-26 07:34N 49°04' W 123°22'9 8.6
2016-Aug-26 06:34N 49°07' W 123°10'5 2.7
2016-Aug-26 04:33N 49°09' W 123°02'0 0.0
2016-Aug-26 03:34N 49°09' W 123°02'0 0.0
2016-Aug-26 02:34N 49°09' W 123°02'0 0.0
2016-Aug-26 01:34N 49°09' W 123°02'0 0.0
2016-Aug-26 00:33N 49°09' W 123°02'0 0.0
2016-Aug-25 23:34N 49°09' W 123°02'0 0.0
2016-Aug-25 22:34N 49°09' W 123°02'0 0.0
2016-Aug-25 21:33N 49°09' W 123°02'0 0.0
2016-Aug-25 20:34N 49°09' W 123°02'0 0.0
2016-Aug-25 19:33N 49°09' W 123°02'0 0.0
2016-Aug-25 18:34N 49°09' W 123°02'0 0.0
2016-Aug-25 17:33N 49°09' W 123°02'3 3.2
2016-Aug-25 16:33N 49°07' W 123°06'5 5.0
2016-Aug-25 15:34N 49°08' W 123°14'6 5.7
2016-Aug-25 14:33N 49°04' W 123°20'7 7.5
2016-Aug-25 13:33N 48°56' W 123°19'9 8.5
2016-Aug-25 12:33N 48°48' W 123°21'7 6.0
2016-Aug-25 11:23N 48°41' W 123°24'0 0.0
2016-Aug-25 10:32N 48°41' W 123°24'3 3.2
2016-Aug-25 09:33N 48°44' W 123°23'1010.2
2016-Aug-25 08:33N 48°54' W 123°18'1111.1
2016-Aug-25 07:33N 49°05' W 123°20'8 8.3
2016-Aug-25 06:33N 49°07' W 123°07'3 1.7
2016-Aug-25 04:33N 49°08' W 123°03'5 4.7
2016-Aug-25 03:33N 49°07' W 123°10'7 7.0
2016-Aug-25 02:33N 49°04' W 123°19'10 9.6
2016-Aug-25 01:33N 48°54' W 123°18'9 8.8
2016-Aug-25 00:33N 48°46' W 123°22'5 4.8
2016-Aug-24 23:33N 48°41' W 123°24'0 0.0
2016-Aug-24 22:31N 48°41' W 123°24'8 8.5
2016-Aug-24 21:33N 48°49' W 123°21'10 9.8
2016-Aug-24 20:33N 48°59' W 123°19'10 9.5
2016-Aug-24 19:33N 49°08' W 123°14'8 8.0
2016-Aug-24 18:33N 49°09' W 123°02'0 0.0
2016-Aug-24 17:33N 49°09' W 123°02'1 0.6
2016-Aug-24 16:33N 49°08' W 123°03'4 4.4
2016-Aug-24 15:33N 49°06' W 123°09'7 6.8
2016-Aug-24 14:33N 49°06' W 123°19'9 8.9
2016-Aug-24 13:33N 48°57' W 123°18'9 8.6
2016-Aug-24 12:33N 48°48' W 123°21'7 6.8
2016-Aug-24 11:29N 48°41' W 123°24'0 0.0
2016-Aug-24 10:32N 48°41' W 123°24'3 3.2
2016-Aug-24 09:33N 48°44' W 123°23'10 9.7
2016-Aug-24 08:33N 48°53' W 123°18'1111.0
2016-Aug-24 07:33N 49°04' W 123°20'8 8.0
2016-Aug-24 06:33N 49°07' W 123°08'5 2.3
2016-Aug-24 04:33N 49°09' W 123°02'0 0.0
2016-Aug-24 03:33N 49°09' W 123°02'0 0.0
2016-Aug-24 02:33N 49°09' W 123°02'0 0.0
2016-Aug-24 01:33N 49°09' W 123°02'0 0.0
2016-Aug-24 00:33N 49°09' W 123°02'0 0.0
2016-Aug-23 23:33N 49°09' W 123°02'0 0.0
2016-Aug-23 22:33N 49°09' W 123°02'0 0.0
2016-Aug-23 21:33N 49°09' W 123°02'0 0.0
2016-Aug-23 20:33N 49°09' W 123°02'0 0.0
2016-Aug-23 19:33N 49°09' W 123°02'0 0.0
2016-Aug-23 18:33N 49°09' W 123°02'0 0.0
2016-Aug-23 17:33N 49°09' W 123°02'1 0.9
2016-Aug-23 16:33N 49°08' W 123°03'1 1.3
2016-Aug-23 15:33N 49°07' W 123°05'8 8.3
2016-Aug-23 14:33N 49°07' W 123°17'9 8.5
2016-Aug-23 13:33N 48°58' W 123°18'9 8.9
2016-Aug-23 12:33N 48°49' W 123°21'8 8.3
2016-Aug-23 11:33N 48°41' W 123°24'0 0.0
2016-Aug-23 10:32N 48°41' W 123°24'3 3.1
2016-Aug-23 09:33N 48°44' W 123°23'9 9.1
2016-Aug-23 08:34N 48°53' W 123°18'1110.6
2016-Aug-23 07:34N 49°03' W 123°21'9 8.7
2016-Aug-23 06:34N 49°07' W 123°09'5 5.2
2016-Aug-23 05:33N 49°09' W 123°02'0 0.5
2016-Aug-23 04:33N 49°08' W 123°03'  
2016-Aug-20 17:20N 49°08' W 123°03'0 0.6
2016-Aug-20 16:33N 49°09' W 123°02'3 3.5
2016-Aug-20 15:33N 49°07' W 123°06'9 8.7
2016-Aug-20 14:33N 49°06' W 123°20'10 9.6
2016-Aug-20 13:33N 48°56' W 123°18'9 8.6
2016-Aug-20 12:33N 48°48' W 123°21'7 6.6
2016-Aug-20 11:33N 48°41' W 123°24'0 0.0
2016-Aug-20 10:33N 48°41' W 123°24'3 3.1
2016-Aug-20 09:33N 48°43' W 123°21'8 8.2
2016-Aug-20 08:33N 48°52' W 123°19'10 9.7
2016-Aug-20 07:34N 49°01' W 123°19'8 8.2
2016-Aug-20 06:33N 49°07' W 123°10'5 5.5
2016-Aug-20 05:33N 49°09' W 123°02'0 0.1
2016-Aug-20 04:33N 49°09' W 123°02'  

Dump ship's entire track history